Pittsburgh, Pennsylvania
Current Conditions -  °F | °C
As of 8:53 AM on Wednesday 28 Jan 2015 (Local Time) from KAGC Reporting Station
Broken Clouds Broken Clouds  
Wind Chill:   Ceiling: 1000
Heat Index: 12°   Visibility: 7mi
Dew Point:   Wind: 8mph
Humidity: 80%   Direction: 250°WSW
Pressure: 30.29"   Gusts: NA
Location:  40.44°N, 80°W
Report Text: KAGC 281353Z 25007KT 7SM BKN010 M11/M14 A3029 RMK AO2 SLP286 T11111139
Loading
Personal Weather Stations






























Interactive Weather Map New forecast layout! Learn more

10-Day Weather Forecast

Advertisements
Track Severe Weather on mobile